Stations météo

réclame
Mon MeteoGroup
Utklippan, Suède (2632): Température de l'air & dewpoint: 18.01.2020 16:00:00 - 24.01.2020 16:00:00 (CET)Utklippan, Suède (2632): Vitesse du vent & gusts: 18.01.2020 16:00:00 - 24.01.2020 16:00:00 (CET)Utklippan, Suède (2632): Direction du vent: 18.01.2020 16:00:00 - 24.01.2020 16:00:00 (CET)
Date & Time tt [°C] td [°C] ff [km/h] ff [knt] fx [km/h] fx [knt] dd
24.01.2020 16:00:00 6,2 5,4 32 18 43 23 WSW
24.01.2020 15:00:00 6,2 5,5 30 16 41 22 WSW
24.01.2020 14:00:00 6,4 5,4 32 17 40 22 W
24.01.2020 13:00:00 6,4 5,4 29 16 45 24 WSW
24.01.2020 12:00:00 6,4 5,7 30 16 42 23 WSW
24.01.2020 11:00:00 6,1 5,5 36 20 46 25 WSW
24.01.2020 10:00:00 6,1 5,7 34 18 49 26 WSW
24.01.2020 09:00:00 6,0 5,6 36 19 46 25 WSW
24.01.2020 08:00:00 5,9 5,5 37 20 46 25 WSW
24.01.2020 07:00:00 5,9 5,6 36 19 45 24 WSW
24.01.2020 06:00:00 6,1 5,5 39 21 47 26 WSW
24.01.2020 05:00:00 6,0 5,6 38 20 49 26 WSW
24.01.2020 04:00:00 6,1 5,7 41 22 56 30 WSW
24.01.2020 03:00:00 6,0 5,6 43 23 58 32 WSW
24.01.2020 02:00:00 6,0 5,6 42 23 56 30 WSW
24.01.2020 01:00:00 5,9 5,5 42 23 63 34 WSW
24.01.2020 00:00:00 5,8 5,2 44 24 61 33 WSW
23.01.2020 23:00:00 5,8 5,2 45 24 59 32 WSW
23.01.2020 22:00:00 6,0 5,3 43 23 57 31 WSW
23.01.2020 21:00:00 5,8 5,2 43 23 59 32 WSW
23.01.2020 20:00:00 5,7 5,1 43 23 56 30 WSW
23.01.2020 19:00:00 5,7 5,0 42 23 54 29 WSW
23.01.2020 18:00:00 5,6 4,6 42 23 56 30 WSW
23.01.2020 17:00:00 5,7 4,3 41 22 61 33 W
23.01.2020 16:00:00 5,6 4,4 43 23 56 30 W
23.01.2020 15:00:00 5,3 4,0 40 22 55 30 W
23.01.2020 14:00:00 5,1 3,8 38 20 50 27 W
23.01.2020 13:00:00 4,9 3,2 40 22 51 28 W
23.01.2020 12:00:00 4,5 3,2 37 20 47 25 W
23.01.2020 11:00:00 4,1 2,6 35 19 46 25 W
23.01.2020 10:00:00 2,5 2,2 35 19 47 26 W
23.01.2020 09:00:00 4,7 3,5 30 16 39 21 WSW
23.01.2020 08:00:00 4,9 1,4 29 16 36 19 WSW
23.01.2020 07:00:00 4,9 0,1 19 10 26 14 WSW
23.01.2020 06:00:00 3,8 -0,2 19 11 23 13 WSW
23.01.2020 05:00:00 4,3 -1,5 20 11 23 12 W
23.01.2020 04:00:00 3,7 -0,1 16 9 19 10 W
23.01.2020 03:00:00 3,4 -1,2 16 9 22 12 WNW
23.01.2020 02:00:00 3,3 -1,5 18 10 21 12 NW
23.01.2020 01:00:00 3,4 -1,7 18 10 24 13 NW
23.01.2020 00:00:00 3,8 -1,6 20 11 26 14 NW
22.01.2020 23:00:00 3,7 -2,1 21 12 29 15 NW
22.01.2020 22:00:00 4,1 -2,1 22 12 33 18 NNW
22.01.2020 21:00:00 4,5 -1,7 26 14 33 18 NW
22.01.2020 20:00:00 4,8 -1,9 23 12 31 17 NW
22.01.2020 19:00:00 5,2 -1,3 23 12 35 19 NW
22.01.2020 18:00:00 5,7 -1,9 25 13 34 19 NW
22.01.2020 17:00:00 5,9 -0,6 22 12 39 21 NW
22.01.2020 16:00:00 6,4 -2,0 30 16 40 22 NNW
22.01.2020 15:00:00 6,7 -0,5 26 14 32 17 NW
22.01.2020 14:00:00 7,1 0,5 21 11 36 19 NW
22.01.2020 13:00:00 7,1 -0,6 30 16 39 21 NW
22.01.2020 12:00:00 6,9 0,3 24 13 38 20 NW
22.01.2020 11:00:00 6,0 2,3 27 15 38 21 WNW
22.01.2020 10:00:00 5,7 2,2 29 16 35 19 WNW
22.01.2020 09:00:00 5,4 2,1 28 15 34 18 WNW
22.01.2020 08:00:00 5,3 2,5 26 14 36 19 W
22.01.2020 07:00:00 5,5 2,8 29 15 43 23 W
22.01.2020 06:00:00 5,8 3,1 31 17 41 22 W
22.01.2020 05:00:00 6,0 3,2 35 19 48 26 WNW
22.01.2020 04:00:00 6,0 2,6 38 21 54 29 WNW
22.01.2020 03:00:00 6,2 2,6 40 21 50 27 WNW
22.01.2020 02:00:00 6,3 2,6 42 23 61 33 WNW
22.01.2020 01:00:00 6,4 2,8 49 26 61 33 W
22.01.2020 00:00:00 6,5 3,3 37 20 51 28 W
21.01.2020 23:00:00 6,6 3,4 40 22 51 28 W
21.01.2020 22:00:00 6,7 4,0 31 17 54 29 W
21.01.2020 21:00:00 6,9 4,4 32 17 46 25 W
21.01.2020 20:00:00 7,1 4,9 37 20 45 24 W
21.01.2020 19:00:00 6,7 5,5 32 17 44 24 W
21.01.2020 18:00:00 6,5 5,6 35 19 55 30 W
21.01.2020 17:00:00 6,8 5,6 45 24 54 29 W
21.01.2020 16:00:00 6,5 5,6 36 20 49 27 W
21.01.2020 15:00:00 6,4 5,5 33 18 49 26 W
21.01.2020 14:00:00 6,6 5,4 39 21 51 28 W
21.01.2020 13:00:00 6,6 5,4 36 19 55 30 W
21.01.2020 12:00:00 6,4 4,9 43 23 56 31 WSW
21.01.2020 11:00:00 6,4 4,9 42 23 52 28 W
21.01.2020 10:00:00 6,3 4,8 39 21 56 30 W
21.01.2020 09:00:00 6,1 4,7 47 25 67 36 W
21.01.2020 08:00:00 6,2 4,7 46 25 59 32 W
21.01.2020 07:00:00 6,0 4,6 47 25 61 33 W
21.01.2020 06:00:00 6,0 4,5 45 25 58 32 W
21.01.2020 05:00:00 6,1 4,6 44 24 60 32 W
21.01.2020 04:00:00 6,1 4,9 46 25 61 33 W
21.01.2020 03:00:00 6,2 4,7 44 24 57 31 W
21.01.2020 02:00:00 6,3 4,9 45 25 57 31 W
21.01.2020 01:00:00 6,2 4,8 42 23 58 31 W
21.01.2020 00:00:00 6,3 4,9 42 23 52 28 W
20.01.2020 23:00:00 6,4 4,7 41 22 54 29 W
20.01.2020 22:00:00 6,4 4,7 42 23 54 29 W
20.01.2020 21:00:00 6,5 4,7 42 23 52 28 W
20.01.2020 20:00:00 6,5 4,5 40 22 51 28 W
20.01.2020 19:00:00 6,5 4,5 41 22 50 27 W
20.01.2020 18:00:00 6,4 4,6 37 20 47 26 W
20.01.2020 17:00:00 6,2 4,5 33 18 46 25 WSW
20.01.2020 16:00:00 6,1 4,1 37 20 52 28 WSW
20.01.2020 15:00:00 6,1 4,1 41 22 54 29 W
20.01.2020 14:00:00 5,9 4,7 33 18 48 26 WSW
20.01.2020 13:00:00 5,9 4,1 35 19 49 27 WSW
20.01.2020 12:00:00 5,5 4,1 34 19 45 24 WSW
20.01.2020 11:00:00 5,6 4,2 33 18 44 24 W
20.01.2020 10:00:00 5,6 4,4 35 19 42 23 W
20.01.2020 09:00:00 4,3 3,7 28 15 43 23 W
20.01.2020 08:00:00 3,5 2,9 29 16 39 21 W
20.01.2020 07:00:00 4,3 2,6 30 16 35 19 W
20.01.2020 06:00:00 4,2 2,2 27 15 35 19 W
20.01.2020 05:00:00 4,2 2,2 26 14 33 18 W
20.01.2020 04:00:00 4,5 2,5 24 13 31 17 W
20.01.2020 03:00:00 4,3 1,8 21 11 32 17 WNW
20.01.2020 02:00:00 4,5 3,2 24 13 30 16 W
20.01.2020 01:00:00 4,7 3,7 19 10 24 13 W
20.01.2020 00:00:00 4,7 3,4 15 8 22 12 W
19.01.2020 23:00:00 4,9 3,6 16 9 19 11 W
19.01.2020 22:00:00 5,0 3,5 12 6 22 12 WNW
19.01.2020 21:00:00 5,4 4,0 19 10 23 12 WNW
19.01.2020 20:00:00 5,5 4,5 18 10 22 12 W
19.01.2020 19:00:00 5,7 4,3 16 9 26 14 W
19.01.2020 18:00:00 5,5 4,3 21 11 27 14 W
19.01.2020 17:00:00 5,4 4,4 20 11 25 13 W
19.01.2020 16:00:00 5,5 4,1 19 11 26 14 W
19.01.2020 15:00:00 6,0 4,0 21 11 30 16 W
19.01.2020 14:00:00 6,3 3,6 24 13 31 17 W
19.01.2020 13:00:00 6,1 3,3 25 14 32 17 W
19.01.2020 12:00:00 6,1 3,4 27 15 33 18 W
19.01.2020 11:00:00 6,4 3,6 22 12 31 17 W
19.01.2020 10:00:00 6,0 3,3 26 14 35 19 W
19.01.2020 09:00:00 5,6 3,4 27 14 34 18 W
19.01.2020 08:00:00 5,8 2,4 28 15 39 21 W
19.01.2020 07:00:00 6,1 3,4 26 14 35 19 W
19.01.2020 06:00:00 6,0 3,7 27 15 35 19 W
19.01.2020 05:00:00 6,1 3,4 28 15 37 20 W
19.01.2020 04:00:00 6,1 3,4 28 15 38 20 W
19.01.2020 03:00:00 6,2 3,7 30 16 45 24 W
19.01.2020 02:00:00 6,1 4,1 32 17 45 24 WSW
19.01.2020 01:00:00 6,1 4,3 32 17 43 23 WSW
19.01.2020 00:00:00 6,0 4,5 32 17 49 27 WSW
18.01.2020 23:00:00 6,0 4,5 34 19 46 25 WSW
18.01.2020 22:00:00 6,0 4,5 34 18 51 27 WSW
18.01.2020 21:00:00 5,8 4,3 44 24 58 32 WSW
18.01.2020 20:00:00 5,9 4,2 46 25 61 33 WSW
18.01.2020 19:00:00 5,9 4,1 47 26 64 35 WSW
18.01.2020 18:00:00 5,9 3,9 48 26 63 34 SW
18.01.2020 17:00:00 5,8 3,8 47 26 65 35 SW
18.01.2020 16:00:00 5,8 3,6 48 26 67 36 SW

tt = Température de l'air
td = dewpoint
ff = Vitesse du vent
fx = gusts
dd = Direction du vent

stations d'obs. à proximité